Ionia, MO

3:33 AM CST on March 06, 2015 (GMT -0600)
cole camp Lincoln | Change Station
CLOSE
Current Station
Personal Weather Station
Location: Cole Camp, MO
Elevation: 905 ft
Nearby Weather Stations

Elev 905 ft 38.40 °N, 93.20 °W | Updated 6 minutes ago

Clear
Clear
20.2 °F
Feels Like 20 °F
N
2.0
Wind Variable Wind from SSW
Gusts 4.0 mph

Today
High -- | Low -- °F
--% Chance of Precip.
Yesterday
High -- | Low -- °F
Precip. -- in
6:38 AM 6:11 PM
Full, 100% visible
Pressure 30.50 in
Visibility 10.0 miles
Clouds Clear
Windchill 20 °F
Dew Point 10 °F
Humidity 65%
Rainfall in
Snow Depth Not available.
UV 0 out of 12
Pollen 1.80 out of 12
Air Quality Not available.
Flu Activity Not available.
METAR KDMO 060853Z AUTO 17008KT 10SM CLR M07/M12 A3046 RMK AO2 SLP327 T10671117 56014

More Conditions Fewer Conditions

Pressure 30.50 in
Visibility 10.0 miles
Clouds Clear
Windchill 20 °F
Dew Point 10 °F
Humidity 65%
Rainfall in
Snow Depth Not available.
UV 0 out of 12
Pollen 1.80 out of 12
Air Quality Not available.
Flu Activity Not available.
METAR KDMO 060853Z AUTO 17008KT 10SM CLR M07/M12 A3046 RMK AO2 SLP327 T10671117 56014

More Conditions Fewer Conditions

10-Day Weather Forecast

Almanac

Astronomy

Mar. 06, 2015 Rise Set
Actual Time
Civil Twilight
Nautical Twilight
Astronomical Twilight
Moon
Length of Visible Light
Length of Day
Tomorrow will be .
, % of the Moon is Illuminated

Today's Extremes

State Highs State Lows

Community

WunderPhotos

Upload Photos

1,803,214 photos uploaded!

WunderBlogs® & News

Nearby

Air Quality

  Air Quality AQ Index Pollutant
Not available.

Snow Depth

Station Depth Elevation

Earthquake Activity

City Distance Mag. Time & Date
Minimum magnitude displayed is 2.5.

Coastal Water Temperatures

Place Temperature

Nearby Weather Stations